sensor_id;sensor_type;location;lat;lon;timestamp;temperature;humidity
11597;DHT22;5854;48.072;16.286;2022-08-03T00:01:05;23.50;50.40
11597;DHT22;5854;48.072;16.286;2022-08-03T00:03:33;23.60;50.80
11597;DHT22;5854;48.072;16.286;2022-08-03T00:06:00;23.70;51.10
11597;DHT22;5854;48.072;16.286;2022-08-03T00:08:29;23.90;48.60
11597;DHT22;5854;48.072;16.286;2022-08-03T00:10:56;23.90;51.60
11597;DHT22;5854;48.072;16.286;2022-08-03T00:13:23;23.90;48.10
11597;DHT22;5854;48.072;16.286;2022-08-03T00:15:51;24.10;49.80
11597;DHT22;5854;48.072;16.286;2022-08-03T00:18:18;24.00;47.60
11597;DHT22;5854;48.072;16.286;2022-08-03T00:20:45;23.60;49.90
11597;DHT22;5854;48.072;16.286;2022-08-03T00:23:13;23.60;50.80
11597;DHT22;5854;48.072;16.286;2022-08-03T00:25:41;23.20;48.90
11597;DHT22;5854;48.072;16.286;2022-08-03T00:28:09;23.20;50.30
11597;DHT22;5854;48.072;16.286;2022-08-03T00:30:36;23.20;52.80
11597;DHT22;5854;48.072;16.286;2022-08-03T00:33:04;23.40;51.00
11597;DHT22;5854;48.072;16.286;2022-08-03T00:35:31;23.30;51.80
11597;DHT22;5854;48.072;16.286;2022-08-03T00:37:59;23.40;52.60
11597;DHT22;5854;48.072;16.286;2022-08-03T00:40:26;23.40;52.30
11597;DHT22;5854;48.072;16.286;2022-08-03T00:42:56;23.40;49.70
11597;DHT22;5854;48.072;16.286;2022-08-03T00:45:27;23.30;52.80
11597;DHT22;5854;48.072;16.286;2022-08-03T00:47:55;23.40;51.80
11597;DHT22;5854;48.072;16.286;2022-08-03T00:50:25;23.50;49.70
11597;DHT22;5854;48.072;16.286;2022-08-03T00:52:55;23.30;52.30
11597;DHT22;5854;48.072;16.286;2022-08-03T00:55:24;23.40;51.00
11597;DHT22;5854;48.072;16.286;2022-08-03T00:57:51;23.40;50.80
11597;DHT22;5854;48.072;16.286;2022-08-03T01:00:22;23.50;51.70
11597;DHT22;5854;48.072;16.286;2022-08-03T01:02:51;23.40;50.30
11597;DHT22;5854;48.072;16.286;2022-08-03T01:05:19;23.20;51.50
11597;DHT22;5854;48.072;16.286;2022-08-03T01:07:59;23.40;52.40
11597;DHT22;5854;48.072;16.286;2022-08-03T01:10:36;23.60;52.00
11597;DHT22;5854;48.072;16.286;2022-08-03T01:13:16;23.60;50.70
11597;DHT22;5854;48.072;16.286;2022-08-03T01:15:49;23.60;51.80
11597;DHT22;5854;48.072;16.286;2022-08-03T01:18:30;23.60;50.90
11597;DHT22;5854;48.072;16.286;2022-08-03T01:21:03;23.50;51.60
11597;DHT22;5854;48.072;16.286;2022-08-03T01:23:58;23.40;52.30
11597;DHT22;5854;48.072;16.286;2022-08-03T01:26:58;23.50;51.70
11597;DHT22;5854;48.072;16.286;2022-08-03T01:29:57;23.40;51.90
11597;DHT22;5854;48.072;16.286;2022-08-03T01:32:33;23.30;51.00
11597;DHT22;5854;48.072;16.286;2022-08-03T01:35:05;23.20;51.80
11597;DHT22;5854;48.072;16.286;2022-08-03T01:37:39;23.20;52.20
11597;DHT22;5854;48.072;16.286;2022-08-03T01:40:10;23.20;51.80
11597;DHT22;5854;48.072;16.286;2022-08-03T01:42:40;23.00;50.20
11597;DHT22;5854;48.072;16.286;2022-08-03T01:45:11;23.10;52.80
11597;DHT22;5854;48.072;16.286;2022-08-03T01:47:40;22.60;50.80
11597;DHT22;5854;48.072;16.286;2022-08-03T01:50:08;22.80;53.30
11597;DHT22;5854;48.072;16.286;2022-08-03T01:52:39;23.00;51.60
11597;DHT22;5854;48.072;16.286;2022-08-03T01:55:08;22.60;52.60
11597;DHT22;5854;48.072;16.286;2022-08-03T01:57:39;22.80;53.50
11597;DHT22;5854;48.072;16.286;2022-08-03T02:00:11;22.70;51.80
11597;DHT22;5854;48.072;16.286;2022-08-03T02:02:39;22.30;51.90
11597;DHT22;5854;48.072;16.286;2022-08-03T02:05:09;22.20;53.50
11597;DHT22;5854;48.072;16.286;2022-08-03T02:07:39;22.40;54.60
11597;DHT22;5854;48.072;16.286;2022-08-03T02:10:08;22.50;54.30
11597;DHT22;5854;48.072;16.286;2022-08-03T02:12:38;22.80;53.80
11597;DHT22;5854;48.072;16.286;2022-08-03T02:15:07;22.70;53.30
11597;DHT22;5854;48.072;16.286;2022-08-03T02:17:36;22.80;53.50
11597;DHT22;5854;48.072;16.286;2022-08-03T02:20:05;22.90;53.10
11597;DHT22;5854;48.072;16.286;2022-08-03T02:22:34;23.00;52.80
11597;DHT22;5854;48.072;16.286;2022-08-03T02:25:02;23.00;52.70
11597;DHT22;5854;48.072;16.286;2022-08-03T02:27:30;22.60;51.70
11597;DHT22;5854;48.072;16.286;2022-08-03T02:30:04;22.50;54.00
11597;DHT22;5854;48.072;16.286;2022-08-03T02:32:36;22.50;52.70
11597;DHT22;5854;48.072;16.286;2022-08-03T02:35:08;22.60;53.10
11597;DHT22;5854;48.072;16.286;2022-08-03T02:37:41;22.70;53.40
11597;DHT22;5854;48.072;16.286;2022-08-03T02:40:12;22.80;53.30
11597;DHT22;5854;48.072;16.286;2022-08-03T02:42:41;22.80;53.10
11597;DHT22;5854;48.072;16.286;2022-08-03T02:45:11;22.60;51.80
11597;DHT22;5854;48.072;16.286;2022-08-03T02:47:41;22.30;53.30
11597;DHT22;5854;48.072;16.286;2022-08-03T02:50:11;22.40;53.60
11597;DHT22;5854;48.072;16.286;2022-08-03T02:52:41;22.50;53.40
11597;DHT22;5854;48.072;16.286;2022-08-03T02:55:09;22.60;53.40
11597;DHT22;5854;48.072;16.286;2022-08-03T02:57:38;22.60;53.20
11597;DHT22;5854;48.072;16.286;2022-08-03T03:00:07;22.60;52.80
11597;DHT22;5854;48.072;16.286;2022-08-03T03:02:36;22.50;53.50
11597;DHT22;5854;48.072;16.286;2022-08-03T03:05:06;22.60;53.60
11597;DHT22;5854;48.072;16.286;2022-08-03T03:07:35;22.50;53.70
11597;DHT22;5854;48.072;16.286;2022-08-03T03:10:05;22.60;53.30
11597;DHT22;5854;48.072;16.286;2022-08-03T03:12:34;22.20;52.90
11597;DHT22;5854;48.072;16.286;2022-08-03T03:15:04;22.20;54.30
11597;DHT22;5854;48.072;16.286;2022-08-03T03:17:32;22.20;54.00
11597;DHT22;5854;48.072;16.286;2022-08-03T03:20:01;22.30;54.10
11597;DHT22;5854;48.072;16.286;2022-08-03T03:22:32;22.40;53.30
11597;DHT22;5854;48.072;16.286;2022-08-03T03:25:01;22.10;52.80
11597;DHT22;5854;48.072;16.286;2022-08-03T03:27:29;21.80;55.00
11597;DHT22;5854;48.072;16.286;2022-08-03T03:29:56;21.90;54.80
11597;DHT22;5854;48.072;16.286;2022-08-03T03:32:25;22.20;55.00
11597;DHT22;5854;48.072;16.286;2022-08-03T03:34:53;22.20;54.10
11597;DHT22;5854;48.072;16.286;2022-08-03T03:37:21;22.20;52.60
11597;DHT22;5854;48.072;16.286;2022-08-03T03:39:50;22.30;53.90
11597;DHT22;5854;48.072;16.286;2022-08-03T03:42:17;22.30;53.90
11597;DHT22;5854;48.072;16.286;2022-08-03T03:44:44;22.20;52.80
11597;DHT22;5854;48.072;16.286;2022-08-03T03:47:12;22.00;52.50
11597;DHT22;5854;48.072;16.286;2022-08-03T03:49:39;21.80;54.30
11597;DHT22;5854;48.072;16.286;2022-08-03T03:52:07;21.90;54.70
11597;DHT22;5854;48.072;16.286;2022-08-03T03:54:41;21.90;54.20
11597;DHT22;5854;48.072;16.286;2022-08-03T03:57:10;21.90;53.30
11597;DHT22;5854;48.072;16.286;2022-08-03T03:59:38;21.80;54.60
11597;DHT22;5854;48.072;16.286;2022-08-03T04:02:06;21.90;54.40
11597;DHT22;5854;48.072;16.286;2022-08-03T04:04:34;21.90;54.40
11597;DHT22;5854;48.072;16.286;2022-08-03T04:07:20;22.00;54.30
11597;DHT22;5854;48.072;16.286;2022-08-03T04:10:12;22.10;54.20
11597;DHT22;5854;48.072;16.286;2022-08-03T04:13:03;21.90;54.00
11597;DHT22;5854;48.072;16.286;2022-08-03T04:15:33;22.00;53.80
11597;DHT22;5854;48.072;16.286;2022-08-03T04:18:02;22.10;54.00
11597;DHT22;5854;48.072;16.286;2022-08-03T04:20:31;22.00;53.40
11597;DHT22;5854;48.072;16.286;2022-08-03T04:23:02;21.80;54.00
11597;DHT22;5854;48.072;16.286;2022-08-03T04:25:32;21.70;54.40
11597;DHT22;5854;48.072;16.286;2022-08-03T04:28:02;21.90;54.60
11597;DHT22;5854;48.072;16.286;2022-08-03T04:30:30;21.80;53.90
11597;DHT22;5854;48.072;16.286;2022-08-03T04:33:00;21.80;54.70
11597;DHT22;5854;48.072;16.286;2022-08-03T04:35:30;21.90;54.40
11597;DHT22;5854;48.072;16.286;2022-08-03T04:38:01;22.00;53.80
11597;DHT22;5854;48.072;16.286;2022-08-03T04:40:32;21.60;54.40
11597;DHT22;5854;48.072;16.286;2022-08-03T04:43:02;21.60;55.10
11597;DHT22;5854;48.072;16.286;2022-08-03T04:45:31;21.40;55.50
11597;DHT22;5854;48.072;16.286;2022-08-03T04:47:59;21.40;55.80
11597;DHT22;5854;48.072;16.286;2022-08-03T04:50:26;21.70;55.40
11597;DHT22;5854;48.072;16.286;2022-08-03T04:52:55;21.70;55.20
11597;DHT22;5854;48.072;16.286;2022-08-03T04:55:25;21.70;55.30
11597;DHT22;5854;48.072;16.286;2022-08-03T04:57:53;21.80;54.60
11597;DHT22;5854;48.072;16.286;2022-08-03T05:00:22;22.00;54.20
11597;DHT22;5854;48.072;16.286;2022-08-03T05:02:50;21.90;55.10
11597;DHT22;5854;48.072;16.286;2022-08-03T05:05:18;21.90;55.30
11597;DHT22;5854;48.072;16.286;2022-08-03T05:07:45;21.80;55.50
11597;DHT22;5854;48.072;16.286;2022-08-03T05:10:13;21.80;54.60
11597;DHT22;5854;48.072;16.286;2022-08-03T05:12:41;21.80;55.50
11597;DHT22;5854;48.072;16.286;2022-08-03T05:15:09;21.90;54.60
11597;DHT22;5854;48.072;16.286;2022-08-03T05:17:37;22.00;55.00
11597;DHT22;5854;48.072;16.286;2022-08-03T05:20:05;21.90;54.60
11597;DHT22;5854;48.072;16.286;2022-08-03T05:22:33;21.90;55.00
11597;DHT22;5854;48.072;16.286;2022-08-03T05:25:01;22.00;54.30
11597;DHT22;5854;48.072;16.286;2022-08-03T05:27:28;22.10;55.30
11597;DHT22;5854;48.072;16.286;2022-08-03T05:29:55;22.20;54.20
11597;DHT22;5854;48.072;16.286;2022-08-03T05:32:23;22.50;53.10
11597;DHT22;5854;48.072;16.286;2022-08-03T05:34:52;22.50;52.80
11597;DHT22;5854;48.072;16.286;2022-08-03T05:37:19;22.50;53.70
11597;DHT22;5854;48.072;16.286;2022-08-03T05:39:47;22.60;53.10
11597;DHT22;5854;48.072;16.286;2022-08-03T05:42:14;23.10;51.20
11597;DHT22;5854;48.072;16.286;2022-08-03T05:44:41;23.50;50.30
11597;DHT22;5854;48.072;16.286;2022-08-03T05:47:09;23.30;50.60
11597;DHT22;5854;48.072;16.286;2022-08-03T05:49:36;23.20;50.60
11597;DHT22;5854;48.072;16.286;2022-08-03T05:52:05;23.10;51.00
11597;DHT22;5854;48.072;16.286;2022-08-03T05:54:33;23.60;49.90
11597;DHT22;5854;48.072;16.286;2022-08-03T05:57:00;23.80;49.00
11597;DHT22;5854;48.072;16.286;2022-08-03T05:59:27;23.50;49.60
11597;DHT22;5854;48.072;16.286;2022-08-03T06:01:54;23.20;50.60
11597;DHT22;5854;48.072;16.286;2022-08-03T06:04:21;23.20;50.70
11597;DHT22;5854;48.072;16.286;2022-08-03T06:06:49;23.30;50.50
11597;DHT22;5854;48.072;16.286;2022-08-03T06:09:17;23.30;50.30
11597;DHT22;5854;48.072;16.286;2022-08-03T06:11:45;23.40;50.50
11597;DHT22;5854;48.072;16.286;2022-08-03T06:14:12;23.50;50.40
11597;DHT22;5854;48.072;16.286;2022-08-03T06:16:39;23.60;50.30
11597;DHT22;5854;48.072;16.286;2022-08-03T06:19:06;23.70;51.80
11597;DHT22;5854;48.072;16.286;2022-08-03T06:21:33;23.80;51.30
11597;DHT22;5854;48.072;16.286;2022-08-03T06:24:01;24.00;49.50
11597;DHT22;5854;48.072;16.286;2022-08-03T06:26:29;24.10;50.20
11597;DHT22;5854;48.072;16.286;2022-08-03T06:28:58;24.20;49.50
11597;DHT22;5854;48.072;16.286;2022-08-03T06:31:25;24.70;45.10
11597;DHT22;5854;48.072;16.286;2022-08-03T06:33:54;25.40;45.00
11597;DHT22;5854;48.072;16.286;2022-08-03T06:36:21;26.10;43.60
11597;DHT22;5854;48.072;16.286;2022-08-03T06:38:50;26.70;41.80
11597;DHT22;5854;48.072;16.286;2022-08-03T06:41:17;27.10;41.70
11597;DHT22;5854;48.072;16.286;2022-08-03T06:43:46;27.00;41.10
11597;DHT22;5854;48.072;16.286;2022-08-03T06:46:13;26.90;41.30
11597;DHT22;5854;48.072;16.286;2022-08-03T06:48:40;27.50;40.90
11597;DHT22;5854;48.072;16.286;2022-08-03T06:51:08;27.60;40.20
11597;DHT22;5854;48.072;16.286;2022-08-03T06:53:35;28.20;39.60
11597;DHT22;5854;48.072;16.286;2022-08-03T06:56:03;28.80;38.40
11597;DHT22;5854;48.072;16.286;2022-08-03T06:58:31;29.00;37.10
11597;DHT22;5854;48.072;16.286;2022-08-03T07:01:01;29.10;37.60
11597;DHT22;5854;48.072;16.286;2022-08-03T07:03:28;29.40;36.60
11597;DHT22;5854;48.072;16.286;2022-08-03T07:05:56;29.50;36.30
11597;DHT22;5854;48.072;16.286;2022-08-03T07:08:23;29.90;35.50
11597;DHT22;5854;48.072;16.286;2022-08-03T07:10:50;29.80;35.00
11597;DHT22;5854;48.072;16.286;2022-08-03T07:13:17;29.70;35.50
11597;DHT22;5854;48.072;16.286;2022-08-03T07:15:44;29.60;34.90
11597;DHT22;5854;48.072;16.286;2022-08-03T07:18:13;29.50;35.60
11597;DHT22;5854;48.072;16.286;2022-08-03T07:20:40;30.30;34.90
11597;DHT22;5854;48.072;16.286;2022-08-03T07:23:08;30.50;34.60
11597;DHT22;5854;48.072;16.286;2022-08-03T07:25:35;29.90;34.20
11597;DHT22;5854;48.072;16.286;2022-08-03T07:28:03;29.50;34.70
11597;DHT22;5854;48.072;16.286;2022-08-03T07:30:30;30.10;34.30
11597;DHT22;5854;48.072;16.286;2022-08-03T07:32:58;30.10;33.70
11597;DHT22;5854;48.072;16.286;2022-08-03T07:35:27;29.90;33.60
11597;DHT22;5854;48.072;16.286;2022-08-03T07:37:54;30.00;34.50
11597;DHT22;5854;48.072;16.286;2022-08-03T07:40:21;30.70;33.30
11597;DHT22;5854;48.072;16.286;2022-08-03T07:42:48;30.50;33.60
11597;DHT22;5854;48.072;16.286;2022-08-03T07:45:16;30.50;33.20
11597;DHT22;5854;48.072;16.286;2022-08-03T07:47:43;30.50;33.50
11597;DHT22;5854;48.072;16.286;2022-08-03T07:50:10;30.70;33.00
11597;DHT22;5854;48.072;16.286;2022-08-03T07:52:39;30.80;33.00
11597;DHT22;5854;48.072;16.286;2022-08-03T07:55:16;30.80;32.90
11597;DHT22;5854;48.072;16.286;2022-08-03T07:57:45;31.20;33.00
11597;DHT22;5854;48.072;16.286;2022-08-03T08:00:16;31.10;32.90
11597;DHT22;5854;48.072;16.286;2022-08-03T08:02:45;31.60;32.30
11597;DHT22;5854;48.072;16.286;2022-08-03T08:05:12;32.80;31.70
11597;DHT22;5854;48.072;16.286;2022-08-03T08:07:41;33.10;30.20
11597;DHT22;5854;48.072;16.286;2022-08-03T08:10:09;32.70;30.40
11597;DHT22;5854;48.072;16.286;2022-08-03T08:12:37;30.90;32.10
11597;DHT22;5854;48.072;16.286;2022-08-03T08:15:06;29.90;34.60
11597;DHT22;5854;48.072;16.286;2022-08-03T08:17:41;28.80;35.30
11597;DHT22;5854;48.072;16.286;2022-08-03T08:20:10;28.40;36.20
11597;DHT22;5854;48.072;16.286;2022-08-03T08:22:39;28.10;37.60
11597;DHT22;5854;48.072;16.286;2022-08-03T08:25:07;27.90;37.50
11597;DHT22;5854;48.072;16.286;2022-08-03T08:27:40;27.60;36.50
11597;DHT22;5854;48.072;16.286;2022-08-03T08:30:10;27.70;37.50
11597;DHT22;5854;48.072;16.286;2022-08-03T08:32:38;28.00;37.40
11597;DHT22;5854;48.072;16.286;2022-08-03T08:35:07;28.10;37.40
11597;DHT22;5854;48.072;16.286;2022-08-03T08:37:35;28.10;36.80
11597;DHT22;5854;48.072;16.286;2022-08-03T08:40:05;28.20;37.20
11597;DHT22;5854;48.072;16.286;2022-08-03T08:42:33;28.30;35.80
11597;DHT22;5854;48.072;16.286;2022-08-03T08:45:00;28.40;35.00
11597;DHT22;5854;48.072;16.286;2022-08-03T08:47:30;28.00;35.70
11597;DHT22;5854;48.072;16.286;2022-08-03T08:49:58;28.30;37.30
11597;DHT22;5854;48.072;16.286;2022-08-03T08:52:28;28.40;35.80
11597;DHT22;5854;48.072;16.286;2022-08-03T08:54:58;28.50;36.70
11597;DHT22;5854;48.072;16.286;2022-08-03T08:57:30;28.60;36.70
11597;DHT22;5854;48.072;16.286;2022-08-03T09:00:00;28.50;35.20
11597;DHT22;5854;48.072;16.286;2022-08-03T09:02:29;28.40;35.90
11597;DHT22;5854;48.072;16.286;2022-08-03T09:04:57;28.20;35.10
11597;DHT22;5854;48.072;16.286;2022-08-03T09:07:25;28.20;34.90
11597;DHT22;5854;48.072;16.286;2022-08-03T09:09:53;28.20;35.80
11597;DHT22;5854;48.072;16.286;2022-08-03T09:12:21;28.10;35.50
11597;DHT22;5854;48.072;16.286;2022-08-03T09:14:49;28.30;36.10
11597;DHT22;5854;48.072;16.286;2022-08-03T09:17:16;28.40;34.90
11597;DHT22;5854;48.072;16.286;2022-08-03T09:20:03;28.20;36.40
11597;DHT22;5854;48.072;16.286;2022-08-03T09:22:32;28.10;36.30
11597;DHT22;5854;48.072;16.286;2022-08-03T09:25:03;28.00;36.10
11597;DHT22;5854;48.072;16.286;2022-08-03T09:27:41;28.00;37.80
11597;DHT22;5854;48.072;16.286;2022-08-03T09:30:14;28.30;35.90
11597;DHT22;5854;48.072;16.286;2022-08-03T09:32:43;28.40;34.30
11597;DHT22;5854;48.072;16.286;2022-08-03T09:35:11;28.40;35.10
11597;DHT22;5854;48.072;16.286;2022-08-03T09:37:40;28.50;34.50
11597;DHT22;5854;48.072;16.286;2022-08-03T09:40:08;28.50;33.30
11597;DHT22;5854;48.072;16.286;2022-08-03T09:42:35;28.50;34.10
11597;DHT22;5854;48.072;16.286;2022-08-03T09:45:05;28.60;34.70
11597;DHT22;5854;48.072;16.286;2022-08-03T09:47:34;29.20;33.90
11597;DHT22;5854;48.072;16.286;2022-08-03T09:50:04;29.30;32.50
11597;DHT22;5854;48.072;16.286;2022-08-03T09:52:34;29.10;33.40
11597;DHT22;5854;48.072;16.286;2022-08-03T09:55:08;28.80;33.10
11597;DHT22;5854;48.072;16.286;2022-08-03T09:57:36;28.80;35.00
11597;DHT22;5854;48.072;16.286;2022-08-03T10:00:07;28.90;33.60
11597;DHT22;5854;48.072;16.286;2022-08-03T10:02:39;29.20;34.90
11597;DHT22;5854;48.072;16.286;2022-08-03T10:05:10;29.20;32.70
11597;DHT22;5854;48.072;16.286;2022-08-03T10:07:42;29.00;34.60
11597;DHT22;5854;48.072;16.286;2022-08-03T10:10:11;29.20;31.80
11597;DHT22;5854;48.072;16.286;2022-08-03T10:12:40;29.30;32.70
11597;DHT22;5854;48.072;16.286;2022-08-03T10:15:08;29.60;31.40
11597;DHT22;5854;48.072;16.286;2022-08-03T10:17:36;29.60;32.50
11597;DHT22;5854;48.072;16.286;2022-08-03T10:20:08;29.60;29.70
11597;DHT22;5854;48.072;16.286;2022-08-03T10:22:37;29.60;26.50
11597;DHT22;5854;48.072;16.286;2022-08-03T10:25:07;29.30;24.70
11597;DHT22;5854;48.072;16.286;2022-08-03T10:27:39;29.40;28.40
11597;DHT22;5854;48.072;16.286;2022-08-03T10:30:08;29.40;30.80
11597;DHT22;5854;48.072;16.286;2022-08-03T10:32:40;29.40;29.40
11597;DHT22;5854;48.072;16.286;2022-08-03T10:35:11;29.40;28.30
11597;DHT22;5854;48.072;16.286;2022-08-03T10:37:41;29.50;29.00
11597;DHT22;5854;48.072;16.286;2022-08-03T10:40:13;29.50;29.30
11597;DHT22;5854;48.072;16.286;2022-08-03T10:42:44;29.50;28.30
11597;DHT22;5854;48.072;16.286;2022-08-03T10:45:17;29.70;29.50
11597;DHT22;5854;48.072;16.286;2022-08-03T10:47:46;29.70;27.80
11597;DHT22;5854;48.072;16.286;2022-08-03T10:50:16;29.60;26.80
11597;DHT22;5854;48.072;16.286;2022-08-03T10:52:54;29.60;30.10
11597;DHT22;5854;48.072;16.286;2022-08-03T10:55:33;29.60;28.10
11597;DHT22;5854;48.072;16.286;2022-08-03T10:58:45;29.60;26.20
11597;DHT22;5854;48.072;16.286;2022-08-03T11:01:14;29.80;25.90
11597;DHT22;5854;48.072;16.286;2022-08-03T11:04:13;29.70;31.40
11597;DHT22;5854;48.072;16.286;2022-08-03T11:06:43;29.70;29.90
11597;DHT22;5854;48.072;16.286;2022-08-03T11:09:16;29.80;28.30
11597;DHT22;5854;48.072;16.286;2022-08-03T11:11:45;29.90;28.20
11597;DHT22;5854;48.072;16.286;2022-08-03T11:14:16;29.90;26.80
11597;DHT22;5854;48.072;16.286;2022-08-03T11:16:46;29.70;27.00
11597;DHT22;5854;48.072;16.286;2022-08-03T11:19:16;29.60;25.40
11597;DHT22;5854;48.072;16.286;2022-08-03T11:21:56;29.50;23.70
11597;DHT22;5854;48.072;16.286;2022-08-03T11:24:57;29.60;25.50
11597;DHT22;5854;48.072;16.286;2022-08-03T11:27:29;29.40;25.60
11597;DHT22;5854;48.072;16.286;2022-08-03T11:29:59;29.50;25.70
11597;DHT22;5854;48.072;16.286;2022-08-03T11:32:50;29.60;28.80
11597;DHT22;5854;48.072;16.286;2022-08-03T11:35:19;29.70;24.30
11597;DHT22;5854;48.072;16.286;2022-08-03T11:38:09;29.50;24.00
11597;DHT22;5854;48.072;16.286;2022-08-03T11:40:39;29.60;26.70
11597;DHT22;5854;48.072;16.286;2022-08-03T11:43:09;29.70;31.20
11597;DHT22;5854;48.072;16.286;2022-08-03T11:46:11;29.60;24.20
11597;DHT22;5854;48.072;16.286;2022-08-03T11:48:43;29.80;23.60
11597;DHT22;5854;48.072;16.286;2022-08-03T11:51:22;29.80;25.10
11597;DHT22;5854;48.072;16.286;2022-08-03T11:53:56;29.80;24.10
11597;DHT22;5854;48.072;16.286;2022-08-03T11:56:25;29.80;22.50
11597;DHT22;5854;48.072;16.286;2022-08-03T11:58:54;29.80;24.20
11597;DHT22;5854;48.072;16.286;2022-08-03T12:01:23;29.90;24.70
11597;DHT22;5854;48.072;16.286;2022-08-03T12:03:51;30.00;23.10
11597;DHT22;5854;48.072;16.286;2022-08-03T12:06:18;30.10;21.60
11597;DHT22;5854;48.072;16.286;2022-08-03T12:08:46;30.10;22.90
11597;DHT22;5854;48.072;16.286;2022-08-03T12:11:15;30.00;24.90
11597;DHT22;5854;48.072;16.286;2022-08-03T12:13:43;29.90;22.00
11597;DHT22;5854;48.072;16.286;2022-08-03T12:16:16;30.00;23.00
11597;DHT22;5854;48.072;16.286;2022-08-03T12:18:44;30.10;29.70
11597;DHT22;5854;48.072;16.286;2022-08-03T12:21:12;30.10;31.70
11597;DHT22;5854;48.072;16.286;2022-08-03T12:23:39;30.10;28.90
11597;DHT22;5854;48.072;16.286;2022-08-03T12:26:07;30.00;32.90
11597;DHT22;5854;48.072;16.286;2022-08-03T12:28:36;30.00;26.60
11597;DHT22;5854;48.072;16.286;2022-08-03T12:31:05;30.20;22.70
11597;DHT22;5854;48.072;16.286;2022-08-03T12:33:54;30.20;22.30
11597;DHT22;5854;48.072;16.286;2022-08-03T12:36:23;30.30;24.20
11597;DHT22;5854;48.072;16.286;2022-08-03T12:38:55;30.40;25.00
11597;DHT22;5854;48.072;16.286;2022-08-03T12:41:28;30.50;27.70
11597;DHT22;5854;48.072;16.286;2022-08-03T12:43:57;30.90;22.50
11597;DHT22;5854;48.072;16.286;2022-08-03T12:46:30;32.10;21.70
11597;DHT22;5854;48.072;16.286;2022-08-03T12:49:00;33.50;18.50
11597;DHT22;5854;48.072;16.286;2022-08-03T12:51:32;34.10;18.70
11597;DHT22;5854;48.072;16.286;2022-08-03T12:54:00;34.80;24.90
11597;DHT22;5854;48.072;16.286;2022-08-03T12:56:27;35.50;23.30
11597;DHT22;5854;48.072;16.286;2022-08-03T12:58:56;35.40;19.30
11597;DHT22;5854;48.072;16.286;2022-08-03T13:01:23;35.30;19.80
11597;DHT22;5854;48.072;16.286;2022-08-03T13:03:52;35.60;17.20
11597;DHT22;5854;48.072;16.286;2022-08-03T13:06:21;35.80;20.30
11597;DHT22;5854;48.072;16.286;2022-08-03T13:08:49;35.80;18.30
11597;DHT22;5854;48.072;16.286;2022-08-03T13:11:27;35.90;24.10
11597;DHT22;5854;48.072;16.286;2022-08-03T13:13:56;35.60;15.60
11597;DHT22;5854;48.072;16.286;2022-08-03T13:16:24;35.50;16.30
11597;DHT22;5854;48.072;16.286;2022-08-03T13:18:51;35.40;16.80
11597;DHT22;5854;48.072;16.286;2022-08-03T13:21:19;35.70;16.40
11597;DHT22;5854;48.072;16.286;2022-08-03T13:23:47;36.00;21.40
11597;DHT22;5854;48.072;16.286;2022-08-03T13:26:14;36.10;16.80
11597;DHT22;5854;48.072;16.286;2022-08-03T13:28:41;36.30;20.00
11597;DHT22;5854;48.072;16.286;2022-08-03T13:31:10;36.40;22.10
11597;DHT22;5854;48.072;16.286;2022-08-03T13:33:37;36.10;23.20
11597;DHT22;5854;48.072;16.286;2022-08-03T13:36:06;36.10;20.20
11597;DHT22;5854;48.072;16.286;2022-08-03T13:38:33;35.90;19.10
11597;DHT22;5854;48.072;16.286;2022-08-03T13:41:01;35.70;18.30
11597;DHT22;5854;48.072;16.286;2022-08-03T13:43:28;35.10;20.70
11597;DHT22;5854;48.072;16.286;2022-08-03T13:45:55;35.10;20.90
11597;DHT22;5854;48.072;16.286;2022-08-03T13:48:24;35.20;22.90
11597;DHT22;5854;48.072;16.286;2022-08-03T13:50:51;35.10;18.50
11597;DHT22;5854;48.072;16.286;2022-08-03T13:53:19;35.10;18.10
11597;DHT22;5854;48.072;16.286;2022-08-03T13:55:46;34.20;17.70
11597;DHT22;5854;48.072;16.286;2022-08-03T13:58:13;33.80;19.90
11597;DHT22;5854;48.072;16.286;2022-08-03T14:00:40;33.40;17.50
11597;DHT22;5854;48.072;16.286;2022-08-03T14:03:07;32.90;26.80
11597;DHT22;5854;48.072;16.286;2022-08-03T14:05:36;32.70;23.70
11597;DHT22;5854;48.072;16.286;2022-08-03T14:08:04;32.40;20.70
11597;DHT22;5854;48.072;16.286;2022-08-03T14:10:33;32.20;19.90
11597;DHT22;5854;48.072;16.286;2022-08-03T14:13:03;32.30;22.50
11597;DHT22;5854;48.072;16.286;2022-08-03T14:15:32;32.20;20.90
11597;DHT22;5854;48.072;16.286;2022-08-03T14:18:00;32.20;21.40
11597;DHT22;5854;48.072;16.286;2022-08-03T14:20:27;32.10;20.60
11597;DHT22;5854;48.072;16.286;2022-08-03T14:22:55;32.00;24.40
11597;DHT22;5854;48.072;16.286;2022-08-03T14:25:22;31.90;20.70
11597;DHT22;5854;48.072;16.286;2022-08-03T14:27:49;32.00;21.90
11597;DHT22;5854;48.072;16.286;2022-08-03T14:30:17;32.10;21.00
11597;DHT22;5854;48.072;16.286;2022-08-03T14:32:44;32.10;23.70
11597;DHT22;5854;48.072;16.286;2022-08-03T14:35:11;32.30;21.50
11597;DHT22;5854;48.072;16.286;2022-08-03T14:37:39;32.30;23.00
11597;DHT22;5854;48.072;16.286;2022-08-03T14:40:08;32.40;20.50
11597;DHT22;5854;48.072;16.286;2022-08-03T14:42:35;32.40;20.60
11597;DHT22;5854;48.072;16.286;2022-08-03T14:45:02;32.00;27.80
11597;DHT22;5854;48.072;16.286;2022-08-03T14:47:30;32.30;23.70
11597;DHT22;5854;48.072;16.286;2022-08-03T14:49:57;32.20;21.40
11597;DHT22;5854;48.072;16.286;2022-08-03T14:52:24;32.20;20.90
11597;DHT22;5854;48.072;16.286;2022-08-03T14:54:51;32.20;21.40
11597;DHT22;5854;48.072;16.286;2022-08-03T14:57:20;32.10;21.00
11597;DHT22;5854;48.072;16.286;2022-08-03T14:59:47;32.10;24.00
11597;DHT22;5854;48.072;16.286;2022-08-03T15:02:14;32.40;21.40
11597;DHT22;5854;48.072;16.286;2022-08-03T15:04:41;32.20;22.20
11597;DHT22;5854;48.072;16.286;2022-08-03T15:07:09;32.30;28.50
11597;DHT22;5854;48.072;16.286;2022-08-03T15:09:36;32.50;24.90
11597;DHT22;5854;48.072;16.286;2022-08-03T15:12:04;32.60;21.70
11597;DHT22;5854;48.072;16.286;2022-08-03T15:14:33;32.50;26.20
11597;DHT22;5854;48.072;16.286;2022-08-03T15:17:00;32.20;22.70
11597;DHT22;5854;48.072;16.286;2022-08-03T15:19:27;32.30;29.70
11597;DHT22;5854;48.072;16.286;2022-08-03T15:21:54;32.20;23.00
11597;DHT22;5854;48.072;16.286;2022-08-03T15:24:21;32.20;23.40
11597;DHT22;5854;48.072;16.286;2022-08-03T15:26:49;32.10;24.00
11597;DHT22;5854;48.072;16.286;2022-08-03T15:29:17;31.80;22.20
11597;DHT22;5854;48.072;16.286;2022-08-03T15:31:45;31.70;30.80
11597;DHT22;5854;48.072;16.286;2022-08-03T15:34:12;31.80;23.60
11597;DHT22;5854;48.072;16.286;2022-08-03T15:36:39;31.50;23.20
11597;DHT22;5854;48.072;16.286;2022-08-03T15:39:07;31.60;22.80
11597;DHT22;5854;48.072;16.286;2022-08-03T15:41:34;31.70;22.60
11597;DHT22;5854;48.072;16.286;2022-08-03T15:44:01;31.80;22.80
11597;DHT22;5854;48.072;16.286;2022-08-03T15:46:29;32.00;27.20